sensor_id;sensor_type;location;lat;lon;timestamp;temperature;humidity
2889;DHT22;1453;42.708;23.282;2023-02-08T00:00:34;-5.20;99.90
2889;DHT22;1453;42.708;23.282;2023-02-08T00:03:00;-5.20;99.90
2889;DHT22;1453;42.708;23.282;2023-02-08T00:05:26;-5.20;99.90
2889;DHT22;1453;42.708;23.282;2023-02-08T00:07:52;-5.10;99.90
2889;DHT22;1453;42.708;23.282;2023-02-08T00:10:17;-5.30;99.90
2889;DHT22;1453;42.708;23.282;2023-02-08T00:12:43;-5.40;99.90
2889;DHT22;1453;42.708;23.282;2023-02-08T00:15:09;-5.40;99.90
2889;DHT22;1453;42.708;23.282;2023-02-08T00:17:35;-5.40;99.90
2889;DHT22;1453;42.708;23.282;2023-02-08T00:20:01;-5.50;99.90
2889;DHT22;1453;42.708;23.282;2023-02-08T00:22:27;-5.50;99.90
2889;DHT22;1453;42.708;23.282;2023-02-08T00:24:53;-5.40;99.90
2889;DHT22;1453;42.708;23.282;2023-02-08T00:27:18;-5.30;99.90
2889;DHT22;1453;42.708;23.282;2023-02-08T00:29:45;-5.30;99.90
2889;DHT22;1453;42.708;23.282;2023-02-08T00:32:11;-5.40;99.90
2889;DHT22;1453;42.708;23.282;2023-02-08T00:34:37;-5.30;99.90
2889;DHT22;1453;42.708;23.282;2023-02-08T00:37:04;-5.20;99.90
2889;DHT22;1453;42.708;23.282;2023-02-08T00:39:30;-5.20;99.90
2889;DHT22;1453;42.708;23.282;2023-02-08T00:41:56;-5.20;99.90
2889;DHT22;1453;42.708;23.282;2023-02-08T00:44:22;-4.90;99.90
2889;DHT22;1453;42.708;23.282;2023-02-08T00:46:48;-5.00;99.90
2889;DHT22;1453;42.708;23.282;2023-02-08T00:49:13;-5.10;99.90
2889;DHT22;1453;42.708;23.282;2023-02-08T00:51:40;-5.10;99.90
2889;DHT22;1453;42.708;23.282;2023-02-08T00:54:06;-5.10;99.90
2889;DHT22;1453;42.708;23.282;2023-02-08T00:56:34;-5.20;99.90
2889;DHT22;1453;42.708;23.282;2023-02-08T00:59:00;-5.20;99.90
2889;DHT22;1453;42.708;23.282;2023-02-08T01:01:26;-5.30;99.90
2889;DHT22;1453;42.708;23.282;2023-02-08T01:03:52;-5.10;99.90
2889;DHT22;1453;42.708;23.282;2023-02-08T01:06:18;-5.10;99.90
2889;DHT22;1453;42.708;23.282;2023-02-08T01:08:43;-5.00;99.90
2889;DHT22;1453;42.708;23.282;2023-02-08T01:11:13;-4.90;99.90
2889;DHT22;1453;42.708;23.282;2023-02-08T01:13:41;-4.90;99.90
2889;DHT22;1453;42.708;23.282;2023-02-08T01:16:14;-4.80;99.90
2889;DHT22;1453;42.708;23.282;2023-02-08T01:18:43;-4.80;99.90
2889;DHT22;1453;42.708;23.282;2023-02-08T01:21:13;-4.70;99.90
2889;DHT22;1453;42.708;23.282;2023-02-08T01:23:41;-4.60;99.90
2889;DHT22;1453;42.708;23.282;2023-02-08T01:26:08;-4.50;99.90
2889;DHT22;1453;42.708;23.282;2023-02-08T01:28:35;-4.80;99.90
2889;DHT22;1453;42.708;23.282;2023-02-08T01:31:13;-4.70;99.90
2889;DHT22;1453;42.708;23.282;2023-02-08T01:33:40;-4.70;99.90
2889;DHT22;1453;42.708;23.282;2023-02-08T01:36:06;-4.80;99.90
2889;DHT22;1453;42.708;23.282;2023-02-08T01:38:34;-4.70;99.90
2889;DHT22;1453;42.708;23.282;2023-02-08T01:41:01;-4.90;99.90
2889;DHT22;1453;42.708;23.282;2023-02-08T01:43:29;-4.80;99.90
2889;DHT22;1453;42.708;23.282;2023-02-08T01:45:57;-4.70;99.90
2889;DHT22;1453;42.708;23.282;2023-02-08T01:48:38;-4.70;99.90
2889;DHT22;1453;42.708;23.282;2023-02-08T01:51:12;-4.70;99.90
2889;DHT22;1453;42.708;23.282;2023-02-08T01:53:41;-4.50;99.90
2889;DHT22;1453;42.708;23.282;2023-02-08T01:56:11;-4.60;99.90
2889;DHT22;1453;42.708;23.282;2023-02-08T01:58:50;-4.40;99.90
2889;DHT22;1453;42.708;23.282;2023-02-08T02:01:17;-4.40;99.90
2889;DHT22;1453;42.708;23.282;2023-02-08T02:03:43;-4.40;99.90
2889;DHT22;1453;42.708;23.282;2023-02-08T02:06:15;-4.50;99.90
2889;DHT22;1453;42.708;23.282;2023-02-08T02:08:50;-4.50;99.90
2889;DHT22;1453;42.708;23.282;2023-02-08T02:11:30;-4.70;99.90
2889;DHT22;1453;42.708;23.282;2023-02-08T02:13:57;-4.80;99.90
2889;DHT22;1453;42.708;23.282;2023-02-08T02:16:23;-4.60;99.90
2889;DHT22;1453;42.708;23.282;2023-02-08T02:18:49;-4.40;99.90
2889;DHT22;1453;42.708;23.282;2023-02-08T02:21:41;-4.40;99.90
2889;DHT22;1453;42.708;23.282;2023-02-08T02:30:21;-4.40;99.90
2889;DHT22;1453;42.708;23.282;2023-02-08T02:35:59;-4.60;99.90
2889;DHT22;1453;42.708;23.282;2023-02-08T02:39:26;-4.40;99.90
2889;DHT22;1453;42.708;23.282;2023-02-08T02:45:12;-4.50;99.90
2889;DHT22;1453;42.708;23.282;2023-02-08T02:50:43;-4.40;99.90
2889;DHT22;1453;42.708;23.282;2023-02-08T02:55:47;-4.30;99.90
2889;DHT22;1453;42.708;23.282;2023-02-08T02:58:18;-4.70;99.90
2889;DHT22;1453;42.708;23.282;2023-02-08T03:00:55;-4.70;99.90
2889;DHT22;1453;42.708;23.282;2023-02-08T03:03:27;-4.60;99.90
2889;DHT22;1453;42.708;23.282;2023-02-08T03:06:05;-4.50;99.90
2889;DHT22;1453;42.708;23.282;2023-02-08T03:08:56;-4.50;99.90
2889;DHT22;1453;42.708;23.282;2023-02-08T03:11:35;-4.60;99.90
2889;DHT22;1453;42.708;23.282;2023-02-08T03:19:49;-4.30;99.90
2889;DHT22;1453;42.708;23.282;2023-02-08T03:22:24;-4.40;99.90
2889;DHT22;1453;42.708;23.282;2023-02-08T03:24:54;-4.60;99.90
2889;DHT22;1453;42.708;23.282;2023-02-08T03:27:47;-4.70;99.90
2889;DHT22;1453;42.708;23.282;2023-02-08T03:33:21;-4.80;99.90
2889;DHT22;1453;42.708;23.282;2023-02-08T03:36:26;-4.90;99.90
2889;DHT22;1453;42.708;23.282;2023-02-08T03:39:14;-4.90;99.90
2889;DHT22;1453;42.708;23.282;2023-02-08T03:41:45;-4.70;99.90
2889;DHT22;1453;42.708;23.282;2023-02-08T03:44:23;-4.70;99.90
2889;DHT22;1453;42.708;23.282;2023-02-08T03:49:38;-4.80;99.90
2889;DHT22;1453;42.708;23.282;2023-02-08T03:52:08;-4.80;99.90
2889;DHT22;1453;42.708;23.282;2023-02-08T03:54:39;-4.80;99.90
2889;DHT22;1453;42.708;23.282;2023-02-08T03:57:23;-4.80;99.90
2889;DHT22;1453;42.708;23.282;2023-02-08T04:00:10;-4.90;99.90
2889;DHT22;1453;42.708;23.282;2023-02-08T04:02:45;-5.00;99.90
2889;DHT22;1453;42.708;23.282;2023-02-08T04:05:16;-5.10;99.90
2889;DHT22;1453;42.708;23.282;2023-02-08T04:07:42;-5.10;99.90
2889;DHT22;1453;42.708;23.282;2023-02-08T04:10:08;-5.30;99.90
2889;DHT22;1453;42.708;23.282;2023-02-08T04:12:34;-5.20;99.90
2889;DHT22;1453;42.708;23.282;2023-02-08T04:15:00;-5.50;99.90
2889;DHT22;1453;42.708;23.282;2023-02-08T04:17:26;-5.50;99.90
2889;DHT22;1453;42.708;23.282;2023-02-08T04:19:52;-5.60;99.90
2889;DHT22;1453;42.708;23.282;2023-02-08T04:22:17;-5.40;99.90
2889;DHT22;1453;42.708;23.282;2023-02-08T04:24:43;-5.60;99.90
2889;DHT22;1453;42.708;23.282;2023-02-08T04:27:09;-5.50;99.90
2889;DHT22;1453;42.708;23.282;2023-02-08T04:29:35;-5.60;99.90
2889;DHT22;1453;42.708;23.282;2023-02-08T04:32:01;-5.80;99.90
2889;DHT22;1453;42.708;23.282;2023-02-08T04:34:26;-5.70;99.90
2889;DHT22;1453;42.708;23.282;2023-02-08T04:36:52;-5.60;99.90
2889;DHT22;1453;42.708;23.282;2023-02-08T04:39:18;-5.50;99.90
2889;DHT22;1453;42.708;23.282;2023-02-08T04:41:44;-5.50;99.90
2889;DHT22;1453;42.708;23.282;2023-02-08T04:44:10;-5.40;99.90
2889;DHT22;1453;42.708;23.282;2023-02-08T04:46:35;-5.60;99.90
2889;DHT22;1453;42.708;23.282;2023-02-08T04:49:01;-5.70;99.90
2889;DHT22;1453;42.708;23.282;2023-02-08T04:51:27;-5.70;99.90
2889;DHT22;1453;42.708;23.282;2023-02-08T04:53:53;-5.70;99.90
2889;DHT22;1453;42.708;23.282;2023-02-08T04:56:18;-5.90;99.90
2889;DHT22;1453;42.708;23.282;2023-02-08T04:58:44;-6.00;99.90
2889;DHT22;1453;42.708;23.282;2023-02-08T05:01:10;-5.80;99.90
2889;DHT22;1453;42.708;23.282;2023-02-08T05:03:36;-5.60;99.90
2889;DHT22;1453;42.708;23.282;2023-02-08T05:06:02;-5.60;99.90
2889;DHT22;1453;42.708;23.282;2023-02-08T05:08:28;-5.60;99.90
2889;DHT22;1453;42.708;23.282;2023-02-08T05:10:54;-5.50;99.90
2889;DHT22;1453;42.708;23.282;2023-02-08T05:13:19;-5.50;99.90
2889;DHT22;1453;42.708;23.282;2023-02-08T05:15:45;-5.40;99.90
2889;DHT22;1453;42.708;23.282;2023-02-08T05:18:11;-5.30;99.90
2889;DHT22;1453;42.708;23.282;2023-02-08T05:20:37;-5.30;99.90
2889;DHT22;1453;42.708;23.282;2023-02-08T05:23:03;-5.40;99.90
2889;DHT22;1453;42.708;23.282;2023-02-08T05:25:30;-5.40;99.90
2889;DHT22;1453;42.708;23.282;2023-02-08T05:27:56;-5.40;99.90
2889;DHT22;1453;42.708;23.282;2023-02-08T05:30:21;-5.40;99.90
2889;DHT22;1453;42.708;23.282;2023-02-08T05:32:47;-5.40;99.90
2889;DHT22;1453;42.708;23.282;2023-02-08T05:35:13;-5.30;99.90
2889;DHT22;1453;42.708;23.282;2023-02-08T05:37:39;-5.20;99.90
2889;DHT22;1453;42.708;23.282;2023-02-08T05:40:05;-5.30;99.90
2889;DHT22;1453;42.708;23.282;2023-02-08T05:42:31;-5.20;99.90
2889;DHT22;1453;42.708;23.282;2023-02-08T05:44:57;-5.40;99.90
2889;DHT22;1453;42.708;23.282;2023-02-08T05:47:23;-5.70;99.90
2889;DHT22;1453;42.708;23.282;2023-02-08T05:49:48;-5.70;99.90
2889;DHT22;1453;42.708;23.282;2023-02-08T05:52:14;-5.70;99.90
2889;DHT22;1453;42.708;23.282;2023-02-08T05:54:40;-5.60;99.90
2889;DHT22;1453;42.708;23.282;2023-02-08T05:57:06;-5.40;99.90
2889;DHT22;1453;42.708;23.282;2023-02-08T05:59:31;-5.40;99.90
2889;DHT22;1453;42.708;23.282;2023-02-08T06:01:58;-5.30;99.90
2889;DHT22;1453;42.708;23.282;2023-02-08T06:04:23;-5.10;99.90
2889;DHT22;1453;42.708;23.282;2023-02-08T06:06:49;-5.00;99.90
2889;DHT22;1453;42.708;23.282;2023-02-08T06:09:15;-4.70;99.90
2889;DHT22;1453;42.708;23.282;2023-02-08T06:11:41;-4.30;99.90
2889;DHT22;1453;42.708;23.282;2023-02-08T06:14:06;-4.00;99.90
2889;DHT22;1453;42.708;23.282;2023-02-08T06:16:32;-3.70;99.90
2889;DHT22;1453;42.708;23.282;2023-02-08T06:18:58;-3.50;99.90
2889;DHT22;1453;42.708;23.282;2023-02-08T06:21:24;-3.10;99.90
2889;DHT22;1453;42.708;23.282;2023-02-08T06:23:50;-2.60;99.90
2889;DHT22;1453;42.708;23.282;2023-02-08T06:26:16;-2.20;99.90
2889;DHT22;1453;42.708;23.282;2023-02-08T06:28:42;-1.90;99.90
2889;DHT22;1453;42.708;23.282;2023-02-08T06:31:07;-1.70;99.90
2889;DHT22;1453;42.708;23.282;2023-02-08T06:33:33;-1.60;99.90
2889;DHT22;1453;42.708;23.282;2023-02-08T06:35:59;-2.00;99.90
2889;DHT22;1453;42.708;23.282;2023-02-08T06:38:25;-2.00;99.90
2889;DHT22;1453;42.708;23.282;2023-02-08T06:40:51;-1.70;99.90
2889;DHT22;1453;42.708;23.282;2023-02-08T06:43:17;-1.80;99.90
2889;DHT22;1453;42.708;23.282;2023-02-08T06:45:44;-1.70;99.90
2889;DHT22;1453;42.708;23.282;2023-02-08T06:48:11;-1.60;99.90
2889;DHT22;1453;42.708;23.282;2023-02-08T06:50:37;-1.30;99.90
2889;DHT22;1453;42.708;23.282;2023-02-08T06:53:03;-0.90;98.40
2889;DHT22;1453;42.708;23.282;2023-02-08T06:55:29;-0.60;95.10
2889;DHT22;1453;42.708;23.282;2023-02-08T06:57:55;0.00;91.60
2889;DHT22;1453;42.708;23.282;2023-02-08T07:00:21;0.30;87.30
2889;DHT22;1453;42.708;23.282;2023-02-08T07:02:48;-0.10;84.80
2889;DHT22;1453;42.708;23.282;2023-02-08T07:05:14;0.20;85.10
2889;DHT22;1453;42.708;23.282;2023-02-08T07:07:40;-0.30;86.00
2889;DHT22;1453;42.708;23.282;2023-02-08T07:10:06;-0.20;83.60
2889;DHT22;1453;42.708;23.282;2023-02-08T07:12:33;0.10;80.90
2889;DHT22;1453;42.708;23.282;2023-02-08T07:15:00;0.30;79.40
2889;DHT22;1453;42.708;23.282;2023-02-08T07:17:26;0.70;79.10
2889;DHT22;1453;42.708;23.282;2023-02-08T07:19:52;0.70;74.00
2889;DHT22;1453;42.708;23.282;2023-02-08T07:22:17;0.90;72.40
2889;DHT22;1453;42.708;23.282;2023-02-08T07:24:44;0.90;72.80
2889;DHT22;1453;42.708;23.282;2023-02-08T07:27:12;1.30;73.40
2889;DHT22;1453;42.708;23.282;2023-02-08T07:29:38;1.10;70.00
2889;DHT22;1453;42.708;23.282;2023-02-08T07:32:05;1.20;71.80
2889;DHT22;1453;42.708;23.282;2023-02-08T07:34:33;2.00;69.10
2889;DHT22;1453;42.708;23.282;2023-02-08T07:37:00;1.20;66.80
2889;DHT22;1453;42.708;23.282;2023-02-08T07:39:27;0.40;67.70
2889;DHT22;1453;42.708;23.282;2023-02-08T07:41:52;-0.10;69.80
2889;DHT22;1453;42.708;23.282;2023-02-08T07:44:18;-0.50;71.80
2889;DHT22;1453;42.708;23.282;2023-02-08T07:46:44;-0.50;73.20
2889;DHT22;1453;42.708;23.282;2023-02-08T07:49:10;-0.90;74.80
2889;DHT22;1453;42.708;23.282;2023-02-08T07:51:36;-0.20;78.80
2889;DHT22;1453;42.708;23.282;2023-02-08T07:54:02;0.10;75.30
2889;DHT22;1453;42.708;23.282;2023-02-08T07:56:28;0.90;76.10
2889;DHT22;1453;42.708;23.282;2023-02-08T07:58:53;1.80;73.20
2889;DHT22;1453;42.708;23.282;2023-02-08T08:01:19;1.70;70.90
2889;DHT22;1453;42.708;23.282;2023-02-08T08:03:45;2.50;69.60
2889;DHT22;1453;42.708;23.282;2023-02-08T08:06:11;3.60;65.50
2889;DHT22;1453;42.708;23.282;2023-02-08T08:08:37;4.00;63.40
2889;DHT22;1453;42.708;23.282;2023-02-08T08:11:04;4.50;60.80
2889;DHT22;1453;42.708;23.282;2023-02-08T08:13:30;4.60;58.80
2889;DHT22;1453;42.708;23.282;2023-02-08T08:15:56;4.10;58.50
2889;DHT22;1453;42.708;23.282;2023-02-08T08:18:22;3.70;58.90
2889;DHT22;1453;42.708;23.282;2023-02-08T08:20:48;3.90;60.10
2889;DHT22;1453;42.708;23.282;2023-02-08T08:23:14;3.90;58.60
2889;DHT22;1453;42.708;23.282;2023-02-08T08:25:40;3.60;59.10
2889;DHT22;1453;42.708;23.282;2023-02-08T08:28:06;4.20;60.00
2889;DHT22;1453;42.708;23.282;2023-02-08T08:30:32;4.10;57.90
2889;DHT22;1453;42.708;23.282;2023-02-08T08:32:58;4.10;58.10
2889;DHT22;1453;42.708;23.282;2023-02-08T08:35:24;4.70;58.40
2889;DHT22;1453;42.708;23.282;2023-02-08T08:37:50;5.30;57.20
2889;DHT22;1453;42.708;23.282;2023-02-08T08:40:16;4.50;57.20
2889;DHT22;1453;42.708;23.282;2023-02-08T08:42:41;5.60;58.20
2889;DHT22;1453;42.708;23.282;2023-02-08T08:45:07;6.10;54.80
2889;DHT22;1453;42.708;23.282;2023-02-08T08:47:34;5.00;55.10
2889;DHT22;1453;42.708;23.282;2023-02-08T08:50:00;5.50;56.10
2889;DHT22;1453;42.708;23.282;2023-02-08T08:52:26;4.60;56.10
2889;DHT22;1453;42.708;23.282;2023-02-08T08:54:52;5.60;56.80
2889;DHT22;1453;42.708;23.282;2023-02-08T08:57:17;6.50;55.50
2889;DHT22;1453;42.708;23.282;2023-02-08T08:59:43;7.40;53.80
2889;DHT22;1453;42.708;23.282;2023-02-08T09:02:13;6.50;52.00
2889;DHT22;1453;42.708;23.282;2023-02-08T09:04:40;6.70;51.80
2889;DHT22;1453;42.708;23.282;2023-02-08T09:07:07;6.20;52.10
2889;DHT22;1453;42.708;23.282;2023-02-08T09:09:34;6.00;51.80
2889;DHT22;1453;42.708;23.282;2023-02-08T09:12:01;6.50;53.80
2889;DHT22;1453;42.708;23.282;2023-02-08T09:14:27;6.90;52.50
2889;DHT22;1453;42.708;23.282;2023-02-08T09:16:53;7.00;52.50
2889;DHT22;1453;42.708;23.282;2023-02-08T09:19:19;7.10;51.70
2889;DHT22;1453;42.708;23.282;2023-02-08T09:21:45;7.70;51.70
2889;DHT22;1453;42.708;23.282;2023-02-08T09:24:11;7.20;50.90
2889;DHT22;1453;42.708;23.282;2023-02-08T09:26:38;7.80;51.10
2889;DHT22;1453;42.708;23.282;2023-02-08T09:29:05;7.40;49.40
2889;DHT22;1453;42.708;23.282;2023-02-08T09:31:33;6.70;49.20
2889;DHT22;1453;42.708;23.282;2023-02-08T09:34:03;6.70;51.00
2889;DHT22;1453;42.708;23.282;2023-02-08T09:36:36;7.60;50.50
2889;DHT22;1453;42.708;23.282;2023-02-08T09:39:23;6.80;49.20
2889;DHT22;1453;42.708;23.282;2023-02-08T09:42:26;6.80;49.60
2889;DHT22;1453;42.708;23.282;2023-02-08T09:48:51;7.60;48.40
2889;DHT22;1453;42.708;23.282;2023-02-08T09:51:28;6.60;50.40
2889;DHT22;1453;42.708;23.282;2023-02-08T09:54:36;6.60;49.50
2889;DHT22;1453;42.708;23.282;2023-02-08T09:57:11;8.40;49.40
2889;DHT22;1453;42.708;23.282;2023-02-08T09:59:39;8.60;47.00
2889;DHT22;1453;42.708;23.282;2023-02-08T10:02:26;9.30;46.60
2889;DHT22;1453;42.708;23.282;2023-02-08T10:05:10;9.40;45.40
2889;DHT22;1453;42.708;23.282;2023-02-08T10:07:39;8.40;45.40
2889;DHT22;1453;42.708;23.282;2023-02-08T10:16:17;7.00;46.80
2889;DHT22;1453;42.708;23.282;2023-02-08T10:18:55;7.30;47.10
2889;DHT22;1453;42.708;23.282;2023-02-08T10:24:20;6.60;47.80
2889;DHT22;1453;42.708;23.282;2023-02-08T10:33:02;5.40;47.90
2889;DHT22;1453;42.708;23.282;2023-02-08T10:35:45;3.90;47.50
2889;DHT22;1453;42.708;23.282;2023-02-08T10:40:50;2.90;50.30
2889;DHT22;1453;42.708;23.282;2023-02-08T10:51:19;0.90;54.50
2889;DHT22;1453;42.708;23.282;2023-02-08T10:53:46;0.90;55.40
2889;DHT22;1453;42.708;23.282;2023-02-08T10:56:42;1.80;56.60
2889;DHT22;1453;42.708;23.282;2023-02-08T10:59:37;1.60;56.10
2889;DHT22;1453;42.708;23.282;2023-02-08T11:02:25;1.00;56.20
2889;DHT22;1453;42.708;23.282;2023-02-08T11:05:06;0.40;57.50
2889;DHT22;1453;42.708;23.282;2023-02-08T11:07:35;0.50;59.20
2889;DHT22;1453;42.708;23.282;2023-02-08T11:12:58;1.10;59.60
2889;DHT22;1453;42.708;23.282;2023-02-08T11:15:51;0.80;60.10
2889;DHT22;1453;42.708;23.282;2023-02-08T11:18:21;0.90;60.40
2889;DHT22;1453;42.708;23.282;2023-02-08T11:20:52;1.00;61.00
2889;DHT22;1453;42.708;23.282;2023-02-08T11:23:27;1.20;61.40
2889;DHT22;1453;42.708;23.282;2023-02-08T11:26:15;1.40;60.20
2889;DHT22;1453;42.708;23.282;2023-02-08T11:32:02;1.10;60.00
2889;DHT22;1453;42.708;23.282;2023-02-08T11:34:38;1.40;60.80
2889;DHT22;1453;42.708;23.282;2023-02-08T11:37:20;1.60;59.90
2889;DHT22;1453;42.708;23.282;2023-02-08T11:39:55;1.60;60.10
2889;DHT22;1453;42.708;23.282;2023-02-08T11:42:34;1.50;59.20
2889;DHT22;1453;42.708;23.282;2023-02-08T11:45:02;1.20;60.70
2889;DHT22;1453;42.708;23.282;2023-02-08T11:47:33;1.80;60.10
2889;DHT22;1453;42.708;23.282;2023-02-08T11:50:03;2.50;60.40
2889;DHT22;1453;42.708;23.282;2023-02-08T11:52:37;2.80;58.70
2889;DHT22;1453;42.708;23.282;2023-02-08T12:00:30;1.30;58.40
2889;DHT22;1453;42.708;23.282;2023-02-08T12:03:30;0.80;58.80
2889;DHT22;1453;42.708;23.282;2023-02-08T12:20:59;4.60;52.00
2889;DHT22;1453;42.708;23.282;2023-02-08T12:32:48;7.20;48.60
2889;DHT22;1453;42.708;23.282;2023-02-08T12:36:33;7.20;48.70
2889;DHT22;1453;42.708;23.282;2023-02-08T12:45:15;7.90;46.70
2889;DHT22;1453;42.708;23.282;2023-02-08T12:51:24;7.60;44.80
2889;DHT22;1453;42.708;23.282;2023-02-08T12:54:13;8.10;44.80
2889;DHT22;1453;42.708;23.282;2023-02-08T12:56:44;5.40;42.90
2889;DHT22;1453;42.708;23.282;2023-02-08T12:59:24;5.10;45.50
2889;DHT22;1453;42.708;23.282;2023-02-08T13:01:57;3.20;45.20
2889;DHT22;1453;42.708;23.282;2023-02-08T13:04:37;3.30;47.50
2889;DHT22;1453;42.708;23.282;2023-02-08T13:07:17;2.70;47.70
2889;DHT22;1453;42.708;23.282;2023-02-08T13:09:51;1.60;48.20
2889;DHT22;1453;42.708;23.282;2023-02-08T13:12:27;1.80;49.50
2889;DHT22;1453;42.708;23.282;2023-02-08T13:17:56;2.10;49.20
2889;DHT22;1453;42.708;23.282;2023-02-08T13:20:55;2.00;50.00
2889;DHT22;1453;42.708;23.282;2023-02-08T13:23:35;2.50;50.70
2889;DHT22;1453;42.708;23.282;2023-02-08T13:26:08;2.90;50.30
2889;DHT22;1453;42.708;23.282;2023-02-08T13:28:39;3.00;49.60
2889;DHT22;1453;42.708;23.282;2023-02-08T13:31:16;3.60;49.20
2889;DHT22;1453;42.708;23.282;2023-02-08T13:33:48;4.40;49.20
2889;DHT22;1453;42.708;23.282;2023-02-08T13:36:34;4.00;47.90
2889;DHT22;1453;42.708;23.282;2023-02-08T13:39:04;3.60;48.70
2889;DHT22;1453;42.708;23.282;2023-02-08T13:41:34;2.80;48.70
2889;DHT22;1453;42.708;23.282;2023-02-08T13:44:15;2.00;50.40
2889;DHT22;1453;42.708;23.282;2023-02-08T13:46:48;1.90;52.10
2889;DHT22;1453;42.708;23.282;2023-02-08T13:57:57;0.30;54.70
2889;DHT22;1453;42.708;23.282;2023-02-08T14:00:24;0.10;55.50
2889;DHT22;1453;42.708;23.282;2023-02-08T14:13:51;0.20;57.80
2889;DHT22;1453;42.708;23.282;2023-02-08T14:16:32;0.00;58.20
2889;DHT22;1453;42.708;23.282;2023-02-08T14:19:05;-0.10;58.40
2889;DHT22;1453;42.708;23.282;2023-02-08T14:24:41;-0.10;60.10
2889;DHT22;1453;42.708;23.282;2023-02-08T14:27:24;-0.40;59.40
2889;DHT22;1453;42.708;23.282;2023-02-08T14:30:06;-0.50;59.50
2889;DHT22;1453;42.708;23.282;2023-02-08T14:32:36;-0.40;60.40
2889;DHT22;1453;42.708;23.282;2023-02-08T14:35:24;0.00;60.00
2889;DHT22;1453;42.708;23.282;2023-02-08T14:41:10;-0.60;59.90
2889;DHT22;1453;42.708;23.282;2023-02-08T14:43:38;-0.30;60.70
2889;DHT22;1453;42.708;23.282;2023-02-08T14:49:13;-0.30;61.00
2889;DHT22;1453;42.708;23.282;2023-02-08T14:51:46;-0.40;61.70
2889;DHT22;1453;42.708;23.282;2023-02-08T14:54:36;-0.70;63.20
2889;DHT22;1453;42.708;23.282;2023-02-08T14:57:29;-1.00;65.10
2889;DHT22;1453;42.708;23.282;2023-02-08T14:59:59;-1.00;66.00
2889;DHT22;1453;42.708;23.282;2023-02-08T15:02:28;-1.20;67.00
2889;DHT22;1453;42.708;23.282;2023-02-08T15:04:56;-1.20;67.00
2889;DHT22;1453;42.708;23.282;2023-02-08T15:07:55;-1.30;66.50
2889;DHT22;1453;42.708;23.282;2023-02-08T15:10:24;-1.30;66.40
2889;DHT22;1453;42.708;23.282;2023-02-08T15:12:55;-1.30;67.10
2889;DHT22;1453;42.708;23.282;2023-02-08T15:15:29;-1.40;66.00
2889;DHT22;1453;42.708;23.282;2023-02-08T15:18:04;-1.50;65.90
2889;DHT22;1453;42.708;23.282;2023-02-08T15:20:33;-1.50;66.70
2889;DHT22;1453;42.708;23.282;2023-02-08T15:23:21;-1.70;67.30
2889;DHT22;1453;42.708;23.282;2023-02-08T15:26:04;-1.80;68.10
2889;DHT22;1453;42.708;23.282;2023-02-08T15:28:43;-1.90;69.00
2889;DHT22;1453;42.708;23.282;2023-02-08T15:31:14;-2.10;70.50
2889;DHT22;1453;42.708;23.282;2023-02-08T15:33:42;-2.00;73.00
2889;DHT22;1453;42.708;23.282;2023-02-08T15:36:32;-1.90;72.10
2889;DHT22;1453;42.708;23.282;2023-02-08T15:39:15;-1.90;73.40
2889;DHT22;1453;42.708;23.282;2023-02-08T15:41:59;-1.90;72.80
2889;DHT22;1453;42.708;23.282;2023-02-08T15:44:30;-2.00;73.00
2889;DHT22;1453;42.708;23.282;2023-02-08T15:46:59;-2.10;74.10
2889;DHT22;1453;42.708;23.282;2023-02-08T15:49:31;-2.20;74.80
2889;DHT22;1453;42.708;23.282;2023-02-08T15:51:59;-2.20;74.40
2889;DHT22;1453;42.708;23.282;2023-02-08T15:54:26;-2.30;74.00
2889;DHT22;1453;42.708;23.282;2023-02-08T15:57:02;-2.30;76.60
2889;DHT22;1453;42.708;23.282;2023-02-08T15:59:33;-2.10;75.40
2889;DHT22;1453;42.708;23.282;2023-02-08T16:04:46;-2.30;75.90
2889;DHT22;1453;42.708;23.282;2023-02-08T16:07:26;-2.40;76.10
2889;DHT22;1453;42.708;23.282;2023-02-08T16:09:56;-2.30;76.50
2889;DHT22;1453;42.708;23.282;2023-02-08T16:12:24;-2.40;77.60
2889;DHT22;1453;42.708;23.282;2023-02-08T16:14:51;-2.50;80.10
2889;DHT22;1453;42.708;23.282;2023-02-08T16:17:43;-2.70;82.20
2889;DHT22;1453;42.708;23.282;2023-02-08T16:20:39;-2.60;82.90
2889;DHT22;1453;42.708;23.282;2023-02-08T16:23:29;-2.60;84.10
2889;DHT22;1453;42.708;23.282;2023-02-08T16:26:24;-2.60;84.80
2889;DHT22;1453;42.708;23.282;2023-02-08T16:31:28;-2.70;90.00
2889;DHT22;1453;42.708;23.282;2023-02-08T16:34:13;-2.80;91.00
2889;DHT22;1453;42.708;23.282;2023-02-08T16:36:49;-2.70;92.00
2889;DHT22;1453;42.708;23.282;2023-02-08T16:46:50;-2.90;92.30
2889;DHT22;1453;42.708;23.282;2023-02-08T16:49:16;-2.80;92.00
2889;DHT22;1453;42.708;23.282;2023-02-08T16:51:42;-2.90;92.90
2889;DHT22;1453;42.708;23.282;2023-02-08T16:54:18;-2.80;93.20
2889;DHT22;1453;42.708;23.282;2023-02-08T16:56:46;-3.00;93.30
2889;DHT22;1453;42.708;23.282;2023-02-08T16:59:15;-2.90;93.70
2889;DHT22;1453;42.708;23.282;2023-02-08T17:01:41;-2.90;93.00
2889;DHT22;1453;42.708;23.282;2023-02-08T17:04:13;-2.90;92.60
2889;DHT22;1453;42.708;23.282;2023-02-08T17:06:44;-3.10;93.20
2889;DHT22;1453;42.708;23.282;2023-02-08T17:09:12;-3.10;94.20
2889;DHT22;1453;42.708;23.282;2023-02-08T17:11:38;-3.00;94.30
2889;DHT22;1453;42.708;23.282;2023-02-08T17:14:06;-2.90;95.00
2889;DHT22;1453;42.708;23.282;2023-02-08T17:16:34;-3.00;94.00
2889;DHT22;1453;42.708;23.282;2023-02-08T17:19:03;-3.00;94.60
2889;DHT22;1453;42.708;23.282;2023-02-08T17:21:29;-3.10;96.30
2889;DHT22;1453;42.708;23.282;2023-02-08T17:23:56;-3.10;96.00
2889;DHT22;1453;42.708;23.282;2023-02-08T17:26:25;-3.00;97.00
2889;DHT22;1453;42.708;23.282;2023-02-08T17:28:55;-3.30;98.70
2889;DHT22;1453;42.708;23.282;2023-02-08T17:31:22;-3.40;99.90
2889;DHT22;1453;42.708;23.282;2023-02-08T17:33:48;-3.40;99.90
2889;DHT22;1453;42.708;23.282;2023-02-08T17:36:15;-3.40;99.90
2889;DHT22;1453;42.708;23.282;2023-02-08T17:38:43;-3.10;99.90
2889;DHT22;1453;42.708;23.282;2023-02-08T17:41:15;-3.30;99.90
2889;DHT22;1453;42.708;23.282;2023-02-08T17:43:48;-3.50;99.90
2889;DHT22;1453;42.708;23.282;2023-02-08T17:46:18;-3.60;99.90
2889;DHT22;1453;42.708;23.282;2023-02-08T17:48:46;-3.50;99.90
2889;DHT22;1453;42.708;23.282;2023-02-08T17:51:17;-3.40;99.90
2889;DHT22;1453;42.708;23.282;2023-02-08T17:53:48;-3.30;99.90
2889;DHT22;1453;42.708;23.282;2023-02-08T17:56:16;-3.40;99.90
2889;DHT22;1453;42.708;23.282;2023-02-08T17:58:45;-3.40;99.90
2889;DHT22;1453;42.708;23.282;2023-02-08T18:01:16;-3.40;99.90
2889;DHT22;1453;42.708;23.282;2023-02-08T18:03:45;-3.50;99.90
2889;DHT22;1453;42.708;23.282;2023-02-08T18:06:12;-3.50;99.90
2889;DHT22;1453;42.708;23.282;2023-02-08T18:08:39;-3.60;99.90
2889;DHT22;1453;42.708;23.282;2023-02-08T18:11:10;-3.60;99.90
2889;DHT22;1453;42.708;23.282;2023-02-08T18:13:38;-3.60;99.90
2889;DHT22;1453;42.708;23.282;2023-02-08T18:16:19;-3.60;99.90
2889;DHT22;1453;42.708;23.282;2023-02-08T18:18:47;-3.60;99.90
2889;DHT22;1453;42.708;23.282;2023-02-08T18:21:21;-3.70;99.90
2889;DHT22;1453;42.708;23.282;2023-02-08T18:23:49;-3.70;99.90
2889;DHT22;1453;42.708;23.282;2023-02-08T18:26:19;-3.80;99.90
2889;DHT22;1453;42.708;23.282;2023-02-08T18:28:46;-3.90;99.90
2889;DHT22;1453;42.708;23.282;2023-02-08T18:31:15;-3.90;99.90
2889;DHT22;1453;42.708;23.282;2023-02-08T18:33:44;-3.90;99.90
2889;DHT22;1453;42.708;23.282;2023-02-08T18:36:11;-3.80;99.90
2889;DHT22;1453;42.708;23.282;2023-02-08T18:38:42;-3.70;99.90
2889;DHT22;1453;42.708;23.282;2023-02-08T18:41:22;-3.90;99.90
2889;DHT22;1453;42.708;23.282;2023-02-08T18:43:49;-3.80;99.90
2889;DHT22;1453;42.708;23.282;2023-02-08T18:46:18;-3.90;99.90